sensor_id;sensor_type;location;lat;lon;timestamp;temperature;humidity
11818;DHT22;5966;52.402;5.322;2023-05-10T00:01:45;14.00;99.90
11818;DHT22;5966;52.402;5.322;2023-05-10T00:04:24;13.90;99.90
11818;DHT22;5966;52.402;5.322;2023-05-10T00:06:55;13.90;99.90
11818;DHT22;5966;52.402;5.322;2023-05-10T00:09:24;13.90;99.90
11818;DHT22;5966;52.402;5.322;2023-05-10T00:11:52;13.90;99.90
11818;DHT22;5966;52.402;5.322;2023-05-10T00:14:21;13.90;99.90
11818;DHT22;5966;52.402;5.322;2023-05-10T00:16:50;13.90;99.90
11818;DHT22;5966;52.402;5.322;2023-05-10T00:19:23;13.90;99.90
11818;DHT22;5966;52.402;5.322;2023-05-10T00:21:51;13.90;99.90
11818;DHT22;5966;52.402;5.322;2023-05-10T00:24:19;13.90;99.90
11818;DHT22;5966;52.402;5.322;2023-05-10T00:26:49;13.90;99.90
11818;DHT22;5966;52.402;5.322;2023-05-10T00:29:17;13.90;99.90
11818;DHT22;5966;52.402;5.322;2023-05-10T00:31:45;13.90;99.90
11818;DHT22;5966;52.402;5.322;2023-05-10T00:34:13;13.90;99.90
11818;DHT22;5966;52.402;5.322;2023-05-10T00:36:41;13.90;99.90
11818;DHT22;5966;52.402;5.322;2023-05-10T00:39:09;13.90;99.90
11818;DHT22;5966;52.402;5.322;2023-05-10T00:41:37;13.90;99.90
11818;DHT22;5966;52.402;5.322;2023-05-10T00:44:10;13.90;99.90
11818;DHT22;5966;52.402;5.322;2023-05-10T00:46:38;13.90;99.90
11818;DHT22;5966;52.402;5.322;2023-05-10T00:49:06;13.90;99.90
11818;DHT22;5966;52.402;5.322;2023-05-10T00:51:35;13.80;99.90
11818;DHT22;5966;52.402;5.322;2023-05-10T00:54:05;13.80;99.90
11818;DHT22;5966;52.402;5.322;2023-05-10T00:56:34;13.80;99.90
11818;DHT22;5966;52.402;5.322;2023-05-10T00:59:02;13.80;99.90
11818;DHT22;5966;52.402;5.322;2023-05-10T01:01:32;13.90;99.90
11818;DHT22;5966;52.402;5.322;2023-05-10T01:04:00;13.90;99.90
11818;DHT22;5966;52.402;5.322;2023-05-10T01:06:29;13.90;99.90
11818;DHT22;5966;52.402;5.322;2023-05-10T01:08:57;13.90;99.90
11818;DHT22;5966;52.402;5.322;2023-05-10T01:11:26;13.90;99.90
11818;DHT22;5966;52.402;5.322;2023-05-10T01:13:57;13.90;99.90
11818;DHT22;5966;52.402;5.322;2023-05-10T01:16:26;13.90;99.90
11818;DHT22;5966;52.402;5.322;2023-05-10T01:18:56;13.90;99.90
11818;DHT22;5966;52.402;5.322;2023-05-10T01:21:36;13.80;99.90
11818;DHT22;5966;52.402;5.322;2023-05-10T01:24:25;13.80;99.90
11818;DHT22;5966;52.402;5.322;2023-05-10T01:30:26;13.80;99.90
11818;DHT22;5966;52.402;5.322;2023-05-10T01:33:01;13.80;99.90
11818;DHT22;5966;52.402;5.322;2023-05-10T01:35:39;13.70;99.90
11818;DHT22;5966;52.402;5.322;2023-05-10T01:38:17;13.70;99.90
11818;DHT22;5966;52.402;5.322;2023-05-10T01:40:54;13.70;99.90
11818;DHT22;5966;52.402;5.322;2023-05-10T01:43:28;13.70;99.90
11818;DHT22;5966;52.402;5.322;2023-05-10T01:46:02;13.70;99.90
11818;DHT22;5966;52.402;5.322;2023-05-10T01:48:41;13.70;99.90
11818;DHT22;5966;52.402;5.322;2023-05-10T01:51:14;13.70;99.90
11818;DHT22;5966;52.402;5.322;2023-05-10T01:53:47;13.70;99.90
11818;DHT22;5966;52.402;5.322;2023-05-10T01:56:16;13.70;99.90
11818;DHT22;5966;52.402;5.322;2023-05-10T01:58:48;13.80;99.90
11818;DHT22;5966;52.402;5.322;2023-05-10T02:01:19;13.80;99.90
11818;DHT22;5966;52.402;5.322;2023-05-10T02:03:50;13.80;99.90
11818;DHT22;5966;52.402;5.322;2023-05-10T02:06:22;13.80;99.90
11818;DHT22;5966;52.402;5.322;2023-05-10T02:08:54;13.70;99.90
11818;DHT22;5966;52.402;5.322;2023-05-10T02:11:25;13.70;99.90
11818;DHT22;5966;52.402;5.322;2023-05-10T02:13:55;13.70;99.90
11818;DHT22;5966;52.402;5.322;2023-05-10T02:16:26;13.70;99.90
11818;DHT22;5966;52.402;5.322;2023-05-10T02:18:59;13.70;99.90
11818;DHT22;5966;52.402;5.322;2023-05-10T02:21:29;13.70;99.90
11818;DHT22;5966;52.402;5.322;2023-05-10T02:24:02;13.70;99.90
11818;DHT22;5966;52.402;5.322;2023-05-10T02:26:31;13.70;99.90
11818;DHT22;5966;52.402;5.322;2023-05-10T02:29:02;13.70;99.90
11818;DHT22;5966;52.402;5.322;2023-05-10T02:31:31;13.70;99.90
11818;DHT22;5966;52.402;5.322;2023-05-10T02:34:01;13.60;99.90
11818;DHT22;5966;52.402;5.322;2023-05-10T02:36:30;13.70;99.90
11818;DHT22;5966;52.402;5.322;2023-05-10T02:39:00;13.70;99.90
11818;DHT22;5966;52.402;5.322;2023-05-10T02:41:31;13.70;99.90
11818;DHT22;5966;52.402;5.322;2023-05-10T02:44:01;13.70;99.90
11818;DHT22;5966;52.402;5.322;2023-05-10T02:46:36;13.70;99.90
11818;DHT22;5966;52.402;5.322;2023-05-10T02:49:07;13.70;99.90
11818;DHT22;5966;52.402;5.322;2023-05-10T02:51:39;13.60;99.90
11818;DHT22;5966;52.402;5.322;2023-05-10T02:54:12;13.60;99.90
11818;DHT22;5966;52.402;5.322;2023-05-10T02:56:43;13.60;99.90
11818;DHT22;5966;52.402;5.322;2023-05-10T02:59:14;13.60;99.90
11818;DHT22;5966;52.402;5.322;2023-05-10T03:01:42;13.60;99.90
11818;DHT22;5966;52.402;5.322;2023-05-10T03:04:11;13.50;99.90
11818;DHT22;5966;52.402;5.322;2023-05-10T03:06:40;13.50;99.90
11818;DHT22;5966;52.402;5.322;2023-05-10T03:09:08;13.50;99.90
11818;DHT22;5966;52.402;5.322;2023-05-10T03:11:50;13.50;99.90
11818;DHT22;5966;52.402;5.322;2023-05-10T03:14:34;13.50;99.90
11818;DHT22;5966;52.402;5.322;2023-05-10T03:17:11;13.50;99.90
11818;DHT22;5966;52.402;5.322;2023-05-10T03:19:48;13.50;99.90
11818;DHT22;5966;52.402;5.322;2023-05-10T03:22:23;13.50;99.90
11818;DHT22;5966;52.402;5.322;2023-05-10T03:24:54;13.50;99.90
11818;DHT22;5966;52.402;5.322;2023-05-10T03:27:26;13.50;99.90
11818;DHT22;5966;52.402;5.322;2023-05-10T03:29:55;13.40;99.90
11818;DHT22;5966;52.402;5.322;2023-05-10T03:32:24;13.40;99.90
11818;DHT22;5966;52.402;5.322;2023-05-10T03:34:55;13.40;99.90
11818;DHT22;5966;52.402;5.322;2023-05-10T03:37:25;13.30;99.90
11818;DHT22;5966;52.402;5.322;2023-05-10T03:39:53;13.30;99.90
11818;DHT22;5966;52.402;5.322;2023-05-10T03:42:22;13.30;99.90
11818;DHT22;5966;52.402;5.322;2023-05-10T03:44:50;13.30;99.90
11818;DHT22;5966;52.402;5.322;2023-05-10T03:47:18;13.30;99.90
11818;DHT22;5966;52.402;5.322;2023-05-10T03:49:46;13.30;99.90
11818;DHT22;5966;52.402;5.322;2023-05-10T03:52:15;13.30;99.90
11818;DHT22;5966;52.402;5.322;2023-05-10T03:54:43;13.30;99.90
11818;DHT22;5966;52.402;5.322;2023-05-10T03:57:11;13.30;99.90
11818;DHT22;5966;52.402;5.322;2023-05-10T03:59:39;13.30;99.90
11818;DHT22;5966;52.402;5.322;2023-05-10T04:02:07;13.30;99.90
11818;DHT22;5966;52.402;5.322;2023-05-10T04:04:35;13.30;99.90
11818;DHT22;5966;52.402;5.322;2023-05-10T04:07:03;13.30;99.90
11818;DHT22;5966;52.402;5.322;2023-05-10T04:09:33;13.30;99.90
11818;DHT22;5966;52.402;5.322;2023-05-10T04:12:01;13.30;99.90
11818;DHT22;5966;52.402;5.322;2023-05-10T04:14:29;13.30;99.90
11818;DHT22;5966;52.402;5.322;2023-05-10T04:16:57;13.30;99.90
11818;DHT22;5966;52.402;5.322;2023-05-10T04:19:29;13.30;99.90
11818;DHT22;5966;52.402;5.322;2023-05-10T04:21:57;13.30;99.90
11818;DHT22;5966;52.402;5.322;2023-05-10T04:24:25;13.30;99.90
11818;DHT22;5966;52.402;5.322;2023-05-10T04:26:55;13.30;99.90
11818;DHT22;5966;52.402;5.322;2023-05-10T04:29:23;13.20;99.90
11818;DHT22;5966;52.402;5.322;2023-05-10T04:31:51;13.20;99.90
11818;DHT22;5966;52.402;5.322;2023-05-10T04:34:20;13.10;99.90
11818;DHT22;5966;52.402;5.322;2023-05-10T04:36:48;13.10;99.90
11818;DHT22;5966;52.402;5.322;2023-05-10T04:39:16;13.10;99.90
11818;DHT22;5966;52.402;5.322;2023-05-10T04:41:44;13.10;99.90
11818;DHT22;5966;52.402;5.322;2023-05-10T04:44:14;13.10;99.90
11818;DHT22;5966;52.402;5.322;2023-05-10T04:46:42;13.10;99.90
11818;DHT22;5966;52.402;5.322;2023-05-10T04:49:10;13.10;99.90
11818;DHT22;5966;52.402;5.322;2023-05-10T04:51:38;13.10;99.90
11818;DHT22;5966;52.402;5.322;2023-05-10T04:54:06;13.10;99.90
11818;DHT22;5966;52.402;5.322;2023-05-10T04:56:34;13.10;99.90
11818;DHT22;5966;52.402;5.322;2023-05-10T04:59:04;13.10;99.90
11818;DHT22;5966;52.402;5.322;2023-05-10T05:01:33;13.10;99.90
11818;DHT22;5966;52.402;5.322;2023-05-10T05:04:04;13.10;99.90
11818;DHT22;5966;52.402;5.322;2023-05-10T05:06:33;13.10;99.90
11818;DHT22;5966;52.402;5.322;2023-05-10T05:09:01;13.10;99.90
11818;DHT22;5966;52.402;5.322;2023-05-10T05:11:29;13.10;99.90
11818;DHT22;5966;52.402;5.322;2023-05-10T05:13:57;13.10;99.90
11818;DHT22;5966;52.402;5.322;2023-05-10T05:16:30;13.10;99.90
11818;DHT22;5966;52.402;5.322;2023-05-10T05:19:03;13.10;99.90
11818;DHT22;5966;52.402;5.322;2023-05-10T05:21:31;13.00;99.90
11818;DHT22;5966;52.402;5.322;2023-05-10T05:23:59;13.00;99.90
11818;DHT22;5966;52.402;5.322;2023-05-10T05:26:28;13.00;99.90
11818;DHT22;5966;52.402;5.322;2023-05-10T05:29:11;13.00;99.90
11818;DHT22;5966;52.402;5.322;2023-05-10T05:31:39;13.00;99.90
11818;DHT22;5966;52.402;5.322;2023-05-10T05:34:08;13.00;99.90
11818;DHT22;5966;52.402;5.322;2023-05-10T05:36:37;13.10;99.90
11818;DHT22;5966;52.402;5.322;2023-05-10T05:39:05;13.10;99.90
11818;DHT22;5966;52.402;5.322;2023-05-10T05:41:34;13.20;99.90
11818;DHT22;5966;52.402;5.322;2023-05-10T05:44:02;13.20;99.90
11818;DHT22;5966;52.402;5.322;2023-05-10T05:46:30;13.30;99.90
11818;DHT22;5966;52.402;5.322;2023-05-10T05:48:58;13.30;99.90
11818;DHT22;5966;52.402;5.322;2023-05-10T05:51:27;13.30;99.90
11818;DHT22;5966;52.402;5.322;2023-05-10T05:53:55;13.20;99.90
11818;DHT22;5966;52.402;5.322;2023-05-10T05:56:23;13.20;99.90
11818;DHT22;5966;52.402;5.322;2023-05-10T05:58:51;13.20;99.90
11818;DHT22;5966;52.402;5.322;2023-05-10T06:01:20;13.20;99.90
11818;DHT22;5966;52.402;5.322;2023-05-10T06:03:48;13.10;99.90
11818;DHT22;5966;52.402;5.322;2023-05-10T06:06:19;13.10;99.90
11818;DHT22;5966;52.402;5.322;2023-05-10T06:08:48;13.10;99.90
11818;DHT22;5966;52.402;5.322;2023-05-10T06:11:16;13.10;99.90
11818;DHT22;5966;52.402;5.322;2023-05-10T06:13:44;13.10;99.90
11818;DHT22;5966;52.402;5.322;2023-05-10T06:16:12;13.10;99.90
11818;DHT22;5966;52.402;5.322;2023-05-10T06:18:40;13.10;99.90
11818;DHT22;5966;52.402;5.322;2023-05-10T06:21:08;13.10;99.90
11818;DHT22;5966;52.402;5.322;2023-05-10T06:23:37;13.10;99.90
11818;DHT22;5966;52.402;5.322;2023-05-10T06:26:06;13.10;99.90
11818;DHT22;5966;52.402;5.322;2023-05-10T06:28:34;13.10;99.90
11818;DHT22;5966;52.402;5.322;2023-05-10T06:31:04;13.10;99.90
11818;DHT22;5966;52.402;5.322;2023-05-10T06:33:33;13.00;99.90
11818;DHT22;5966;52.402;5.322;2023-05-10T06:36:02;13.00;99.90
11818;DHT22;5966;52.402;5.322;2023-05-10T06:38:30;13.00;99.90
11818;DHT22;5966;52.402;5.322;2023-05-10T06:40:59;13.00;99.90
11818;DHT22;5966;52.402;5.322;2023-05-10T06:43:30;13.10;99.90
11818;DHT22;5966;52.402;5.322;2023-05-10T06:46:02;13.10;99.90
11818;DHT22;5966;52.402;5.322;2023-05-10T06:48:30;13.10;99.90
11818;DHT22;5966;52.402;5.322;2023-05-10T06:50:58;13.10;99.90
11818;DHT22;5966;52.402;5.322;2023-05-10T06:53:27;13.10;99.90
11818;DHT22;5966;52.402;5.322;2023-05-10T06:55:56;13.10;99.90
11818;DHT22;5966;52.402;5.322;2023-05-10T06:58:25;13.20;99.90
11818;DHT22;5966;52.402;5.322;2023-05-10T07:01:02;13.20;99.90
11818;DHT22;5966;52.402;5.322;2023-05-10T07:03:33;13.20;99.90
11818;DHT22;5966;52.402;5.322;2023-05-10T07:06:01;13.20;99.90
11818;DHT22;5966;52.402;5.322;2023-05-10T07:08:31;13.20;99.90
11818;DHT22;5966;52.402;5.322;2023-05-10T07:11:02;13.20;99.90
11818;DHT22;5966;52.402;5.322;2023-05-10T07:13:33;13.20;99.90
11818;DHT22;5966;52.402;5.322;2023-05-10T07:16:06;13.30;99.90
11818;DHT22;5966;52.402;5.322;2023-05-10T07:18:35;13.30;99.90
11818;DHT22;5966;52.402;5.322;2023-05-10T07:21:03;13.30;99.90
11818;DHT22;5966;52.402;5.322;2023-05-10T07:23:31;13.30;99.90
11818;DHT22;5966;52.402;5.322;2023-05-10T07:25:59;13.30;99.90
11818;DHT22;5966;52.402;5.322;2023-05-10T07:28:29;13.30;99.90
11818;DHT22;5966;52.402;5.322;2023-05-10T07:30:57;13.30;99.90
11818;DHT22;5966;52.402;5.322;2023-05-10T07:33:30;13.30;99.90
11818;DHT22;5966;52.402;5.322;2023-05-10T07:35:58;13.30;99.90
11818;DHT22;5966;52.402;5.322;2023-05-10T07:38:27;13.30;99.90
11818;DHT22;5966;52.402;5.322;2023-05-10T07:41:00;13.40;99.90
11818;DHT22;5966;52.402;5.322;2023-05-10T07:43:28;13.40;99.90
11818;DHT22;5966;52.402;5.322;2023-05-10T07:45:57;13.40;99.90
11818;DHT22;5966;52.402;5.322;2023-05-10T07:48:34;13.40;99.90
11818;DHT22;5966;52.402;5.322;2023-05-10T07:51:02;13.40;99.90
11818;DHT22;5966;52.402;5.322;2023-05-10T07:53:31;13.40;99.90
11818;DHT22;5966;52.402;5.322;2023-05-10T07:55:59;13.50;99.90
11818;DHT22;5966;52.402;5.322;2023-05-10T07:58:27;13.50;99.90
11818;DHT22;5966;52.402;5.322;2023-05-10T08:01:06;13.50;99.90
11818;DHT22;5966;52.402;5.322;2023-05-10T08:03:38;13.60;99.90
11818;DHT22;5966;52.402;5.322;2023-05-10T08:06:07;13.60;99.90
11818;DHT22;5966;52.402;5.322;2023-05-10T08:08:35;13.70;99.90
11818;DHT22;5966;52.402;5.322;2023-05-10T08:11:12;13.70;99.90
11818;DHT22;5966;52.402;5.322;2023-05-10T08:13:42;13.70;99.90
11818;DHT22;5966;52.402;5.322;2023-05-10T08:16:11;13.80;99.90
11818;DHT22;5966;52.402;5.322;2023-05-10T08:18:41;13.80;99.90
11818;DHT22;5966;52.402;5.322;2023-05-10T08:21:09;13.80;99.90
11818;DHT22;5966;52.402;5.322;2023-05-10T08:23:38;13.80;99.90
11818;DHT22;5966;52.402;5.322;2023-05-10T08:26:10;13.70;99.90
11818;DHT22;5966;52.402;5.322;2023-05-10T08:28:38;13.80;99.90
11818;DHT22;5966;52.402;5.322;2023-05-10T08:31:06;13.70;99.90
11818;DHT22;5966;52.402;5.322;2023-05-10T08:33:35;13.70;99.90
11818;DHT22;5966;52.402;5.322;2023-05-10T08:36:08;13.70;99.90
11818;DHT22;5966;52.402;5.322;2023-05-10T08:38:37;13.70;99.90
11818;DHT22;5966;52.402;5.322;2023-05-10T08:41:07;13.70;99.90
11818;DHT22;5966;52.402;5.322;2023-05-10T08:43:36;13.80;99.90
11818;DHT22;5966;52.402;5.322;2023-05-10T08:46:05;13.90;99.90
11818;DHT22;5966;52.402;5.322;2023-05-10T08:48:34;13.90;99.90
11818;DHT22;5966;52.402;5.322;2023-05-10T08:51:03;14.00;99.90
11818;DHT22;5966;52.402;5.322;2023-05-10T08:53:36;14.10;99.90
11818;DHT22;5966;52.402;5.322;2023-05-10T08:56:05;14.10;99.90
11818;DHT22;5966;52.402;5.322;2023-05-10T08:58:33;14.20;99.90
11818;DHT22;5966;52.402;5.322;2023-05-10T09:01:02;14.30;99.90
11818;DHT22;5966;52.402;5.322;2023-05-10T09:03:31;14.30;99.90
11818;DHT22;5966;52.402;5.322;2023-05-10T09:05:59;14.30;99.90
11818;DHT22;5966;52.402;5.322;2023-05-10T09:08:28;14.30;99.90
11818;DHT22;5966;52.402;5.322;2023-05-10T09:11:00;14.30;99.90
11818;DHT22;5966;52.402;5.322;2023-05-10T09:13:31;14.30;99.90
11818;DHT22;5966;52.402;5.322;2023-05-10T09:16:00;14.30;99.90
11818;DHT22;5966;52.402;5.322;2023-05-10T09:18:47;14.40;99.90
11818;DHT22;5966;52.402;5.322;2023-05-10T09:21:16;14.40;99.90
11818;DHT22;5966;52.402;5.322;2023-05-10T09:23:45;14.50;99.90
11818;DHT22;5966;52.402;5.322;2023-05-10T09:26:16;14.60;99.90
11818;DHT22;5966;52.402;5.322;2023-05-10T09:28:53;14.60;99.90
11818;DHT22;5966;52.402;5.322;2023-05-10T09:31:21;14.70;99.90
11818;DHT22;5966;52.402;5.322;2023-05-10T09:33:51;14.80;99.90
11818;DHT22;5966;52.402;5.322;2023-05-10T09:36:19;14.80;99.90
11818;DHT22;5966;52.402;5.322;2023-05-10T09:38:48;14.80;99.90
11818;DHT22;5966;52.402;5.322;2023-05-10T09:41:19;14.90;99.90
11818;DHT22;5966;52.402;5.322;2023-05-10T09:43:48;14.80;99.90
11818;DHT22;5966;52.402;5.322;2023-05-10T09:46:16;14.90;99.90
11818;DHT22;5966;52.402;5.322;2023-05-10T09:48:46;14.90;99.90
11818;DHT22;5966;52.402;5.322;2023-05-10T09:51:21;14.90;99.90
11818;DHT22;5966;52.402;5.322;2023-05-10T09:54:09;14.90;99.90
11818;DHT22;5966;52.402;5.322;2023-05-10T09:56:39;15.00;99.90
11818;DHT22;5966;52.402;5.322;2023-05-10T09:59:10;15.00;99.90
11818;DHT22;5966;52.402;5.322;2023-05-10T10:01:38;14.90;99.90
11818;DHT22;5966;52.402;5.322;2023-05-10T10:04:08;14.90;99.90
11818;DHT22;5966;52.402;5.322;2023-05-10T10:06:37;14.80;99.90
11818;DHT22;5966;52.402;5.322;2023-05-10T10:09:06;14.80;99.90
11818;DHT22;5966;52.402;5.322;2023-05-10T10:11:37;14.90;99.90
11818;DHT22;5966;52.402;5.322;2023-05-10T10:14:06;14.90;99.90
11818;DHT22;5966;52.402;5.322;2023-05-10T10:16:34;14.80;99.90
11818;DHT22;5966;52.402;5.322;2023-05-10T10:19:12;14.90;99.90
11818;DHT22;5966;52.402;5.322;2023-05-10T10:21:40;14.90;99.90
11818;DHT22;5966;52.402;5.322;2023-05-10T10:24:08;15.00;99.90
11818;DHT22;5966;52.402;5.322;2023-05-10T10:26:37;15.00;99.90
11818;DHT22;5966;52.402;5.322;2023-05-10T10:29:14;15.10;99.90
11818;DHT22;5966;52.402;5.322;2023-05-10T10:31:47;15.10;99.90
11818;DHT22;5966;52.402;5.322;2023-05-10T10:34:26;15.10;99.90
11818;DHT22;5966;52.402;5.322;2023-05-10T10:36:56;15.20;99.90
11818;DHT22;5966;52.402;5.322;2023-05-10T10:39:25;15.20;99.90
11818;DHT22;5966;52.402;5.322;2023-05-10T10:41:55;15.30;99.90
11818;DHT22;5966;52.402;5.322;2023-05-10T10:44:35;15.40;99.90
11818;DHT22;5966;52.402;5.322;2023-05-10T10:47:07;15.40;99.90
11818;DHT22;5966;52.402;5.322;2023-05-10T10:49:52;15.50;99.90
11818;DHT22;5966;52.402;5.322;2023-05-10T10:52:35;15.50;99.90
11818;DHT22;5966;52.402;5.322;2023-05-10T10:55:06;15.60;99.90
11818;DHT22;5966;52.402;5.322;2023-05-10T10:57:45;15.60;99.90
11818;DHT22;5966;52.402;5.322;2023-05-10T11:00:26;15.60;99.90
11818;DHT22;5966;52.402;5.322;2023-05-10T11:02:57;15.60;99.90
11818;DHT22;5966;52.402;5.322;2023-05-10T11:05:37;15.50;99.90
11818;DHT22;5966;52.402;5.322;2023-05-10T11:08:10;15.50;99.90
11818;DHT22;5966;52.402;5.322;2023-05-10T11:10:51;15.40;99.90
11818;DHT22;5966;52.402;5.322;2023-05-10T11:13:27;15.50;99.90
11818;DHT22;5966;52.402;5.322;2023-05-10T11:15:59;15.50;99.90
11818;DHT22;5966;52.402;5.322;2023-05-10T11:18:40;15.60;99.90
11818;DHT22;5966;52.402;5.322;2023-05-10T11:21:10;15.60;99.90
11818;DHT22;5966;52.402;5.322;2023-05-10T11:23:49;15.60;99.90
11818;DHT22;5966;52.402;5.322;2023-05-10T11:26:23;15.60;99.90
11818;DHT22;5966;52.402;5.322;2023-05-10T11:28:54;15.60;99.90
11818;DHT22;5966;52.402;5.322;2023-05-10T11:31:25;15.50;99.90
11818;DHT22;5966;52.402;5.322;2023-05-10T11:33:55;15.50;99.90
11818;DHT22;5966;52.402;5.322;2023-05-10T11:36:26;15.40;99.90
11818;DHT22;5966;52.402;5.322;2023-05-10T11:38:55;15.40;99.90
11818;DHT22;5966;52.402;5.322;2023-05-10T11:41:27;15.40;99.90
11818;DHT22;5966;52.402;5.322;2023-05-10T11:43:57;15.30;99.90
11818;DHT22;5966;52.402;5.322;2023-05-10T11:46:28;15.30;99.90
11818;DHT22;5966;52.402;5.322;2023-05-10T11:49:00;15.30;99.90
11818;DHT22;5966;52.402;5.322;2023-05-10T11:51:33;15.30;99.90
11818;DHT22;5966;52.402;5.322;2023-05-10T11:54:06;15.30;99.90
11818;DHT22;5966;52.402;5.322;2023-05-10T11:56:34;15.30;99.90
11818;DHT22;5966;52.402;5.322;2023-05-10T11:59:02;15.40;99.90
11818;DHT22;5966;52.402;5.322;2023-05-10T12:01:32;15.50;99.90
11818;DHT22;5966;52.402;5.322;2023-05-10T12:04:01;15.50;99.90
11818;DHT22;5966;52.402;5.322;2023-05-10T12:06:32;15.60;99.90
11818;DHT22;5966;52.402;5.322;2023-05-10T12:09:05;15.60;99.90
11818;DHT22;5966;52.402;5.322;2023-05-10T12:11:37;15.60;99.90
11818;DHT22;5966;52.402;5.322;2023-05-10T12:14:10;15.60;99.90
11818;DHT22;5966;52.402;5.322;2023-05-10T12:16:43;15.60;99.90
11818;DHT22;5966;52.402;5.322;2023-05-10T12:19:12;15.50;99.90
11818;DHT22;5966;52.402;5.322;2023-05-10T12:21:44;15.50;99.90
11818;DHT22;5966;52.402;5.322;2023-05-10T12:24:12;15.50;99.90
11818;DHT22;5966;52.402;5.322;2023-05-10T12:26:43;15.60;99.90
11818;DHT22;5966;52.402;5.322;2023-05-10T12:29:18;15.60;99.90
11818;DHT22;5966;52.402;5.322;2023-05-10T12:31:52;15.60;99.90
11818;DHT22;5966;52.402;5.322;2023-05-10T12:34:25;15.60;99.90
11818;DHT22;5966;52.402;5.322;2023-05-10T12:36:55;15.60;99.90
11818;DHT22;5966;52.402;5.322;2023-05-10T12:39:23;15.60;99.90
11818;DHT22;5966;52.402;5.322;2023-05-10T12:41:53;15.70;99.90
11818;DHT22;5966;52.402;5.322;2023-05-10T12:44:21;15.60;99.90
11818;DHT22;5966;52.402;5.322;2023-05-10T12:46:49;15.70;99.90
11818;DHT22;5966;52.402;5.322;2023-05-10T12:49:19;15.70;99.90
11818;DHT22;5966;52.402;5.322;2023-05-10T12:51:46;15.70;99.90
11818;DHT22;5966;52.402;5.322;2023-05-10T12:54:14;15.70;99.90
11818;DHT22;5966;52.402;5.322;2023-05-10T12:56:43;15.80;99.90
11818;DHT22;5966;52.402;5.322;2023-05-10T12:59:12;15.80;99.90
11818;DHT22;5966;52.402;5.322;2023-05-10T13:01:40;15.90;99.90
11818;DHT22;5966;52.402;5.322;2023-05-10T13:04:08;15.90;99.90
11818;DHT22;5966;52.402;5.322;2023-05-10T13:06:38;16.00;99.90
11818;DHT22;5966;52.402;5.322;2023-05-10T13:09:06;16.00;99.90
11818;DHT22;5966;52.402;5.322;2023-05-10T13:11:34;16.10;99.90
11818;DHT22;5966;52.402;5.322;2023-05-10T13:14:03;16.00;99.90
11818;DHT22;5966;52.402;5.322;2023-05-10T13:16:31;16.10;99.90
11818;DHT22;5966;52.402;5.322;2023-05-10T13:18:59;16.10;99.90
11818;DHT22;5966;52.402;5.322;2023-05-10T13:21:28;16.20;99.90
11818;DHT22;5966;52.402;5.322;2023-05-10T13:23:57;16.20;99.90
11818;DHT22;5966;52.402;5.322;2023-05-10T13:26:25;16.30;99.90
11818;DHT22;5966;52.402;5.322;2023-05-10T13:28:55;16.30;99.90
11818;DHT22;5966;52.402;5.322;2023-05-10T13:31:23;16.20;99.90
11818;DHT22;5966;52.402;5.322;2023-05-10T13:33:51;16.20;99.90
11818;DHT22;5966;52.402;5.322;2023-05-10T13:36:24;16.20;99.90
11818;DHT22;5966;52.402;5.322;2023-05-10T13:38:54;16.20;99.90
11818;DHT22;5966;52.402;5.322;2023-05-10T13:41:25;16.10;99.90
11818;DHT22;5966;52.402;5.322;2023-05-10T13:43:53;16.10;99.90
11818;DHT22;5966;52.402;5.322;2023-05-10T13:46:21;16.00;99.90
11818;DHT22;5966;52.402;5.322;2023-05-10T13:48:49;16.00;99.90
11818;DHT22;5966;52.402;5.322;2023-05-10T13:51:22;16.00;99.90
11818;DHT22;5966;52.402;5.322;2023-05-10T13:53:50;16.00;99.90
11818;DHT22;5966;52.402;5.322;2023-05-10T13:56:18;16.00;99.90
11818;DHT22;5966;52.402;5.322;2023-05-10T13:58:47;16.00;99.90
11818;DHT22;5966;52.402;5.322;2023-05-10T14:01:15;16.00;99.90
11818;DHT22;5966;52.402;5.322;2023-05-10T14:03:44;15.90;99.90
11818;DHT22;5966;52.402;5.322;2023-05-10T14:06:12;15.90;99.90
11818;DHT22;5966;52.402;5.322;2023-05-10T14:08:40;15.90;99.90
11818;DHT22;5966;52.402;5.322;2023-05-10T14:11:08;15.90;99.90
11818;DHT22;5966;52.402;5.322;2023-05-10T14:13:38;15.90;99.90
11818;DHT22;5966;52.402;5.322;2023-05-10T14:16:08;15.90;99.90
11818;DHT22;5966;52.402;5.322;2023-05-10T14:18:36;15.90;99.90
11818;DHT22;5966;52.402;5.322;2023-05-10T14:21:04;15.90;99.90
11818;DHT22;5966;52.402;5.322;2023-05-10T14:23:32;16.00;99.90
11818;DHT22;5966;52.402;5.322;2023-05-10T14:26:00;16.00;99.90
11818;DHT22;5966;52.402;5.322;2023-05-10T14:28:28;16.00;99.90
11818;DHT22;5966;52.402;5.322;2023-05-10T14:30:56;15.90;99.90
11818;DHT22;5966;52.402;5.322;2023-05-10T14:33:27;15.80;99.90
11818;DHT22;5966;52.402;5.322;2023-05-10T14:35:54;15.70;99.90
11818;DHT22;5966;52.402;5.322;2023-05-10T14:38:24;15.60;99.90
11818;DHT22;5966;52.402;5.322;2023-05-10T14:40:53;15.60;99.90
11818;DHT22;5966;52.402;5.322;2023-05-10T14:43:21;15.70;99.90
11818;DHT22;5966;52.402;5.322;2023-05-10T14:45:50;15.80;99.90
11818;DHT22;5966;52.402;5.322;2023-05-10T14:48:18;15.80;99.90
11818;DHT22;5966;52.402;5.322;2023-05-10T14:50:50;15.80;99.90
11818;DHT22;5966;52.402;5.322;2023-05-10T14:53:19;15.80;99.90
11818;DHT22;5966;52.402;5.322;2023-05-10T14:55:47;15.80;99.90
11818;DHT22;5966;52.402;5.322;2023-05-10T14:58:18;15.70;99.90
11818;DHT22;5966;52.402;5.322;2023-05-10T15:00:47;15.70;99.90
11818;DHT22;5966;52.402;5.322;2023-05-10T15:03:16;15.70;99.90
11818;DHT22;5966;52.402;5.322;2023-05-10T15:05:44;15.70;99.90
11818;DHT22;5966;52.402;5.322;2023-05-10T15:08:17;15.80;99.90
11818;DHT22;5966;52.402;5.322;2023-05-10T15:10:45;15.80;99.90
11818;DHT22;5966;52.402;5.322;2023-05-10T15:13:13;15.80;99.90
11818;DHT22;5966;52.402;5.322;2023-05-10T15:15:41;15.80;99.90
11818;DHT22;5966;52.402;5.322;2023-05-10T15:18:09;15.80;99.90
11818;DHT22;5966;52.402;5.322;2023-05-10T15:20:39;15.80;99.90
11818;DHT22;5966;52.402;5.322;2023-05-10T15:23:07;15.80;99.90
11818;DHT22;5966;52.402;5.322;2023-05-10T15:25:37;15.70;99.90
11818;DHT22;5966;52.402;5.322;2023-05-10T15:28:06;15.70;99.90
11818;DHT22;5966;52.402;5.322;2023-05-10T15:30:34;15.70;99.90
11818;DHT22;5966;52.402;5.322;2023-05-10T15:33:01;15.70;99.90
11818;DHT22;5966;52.402;5.322;2023-05-10T15:35:30;15.60;99.90
11818;DHT22;5966;52.402;5.322;2023-05-10T15:38:00;15.60;99.90
11818;DHT22;5966;52.402;5.322;2023-05-10T15:40:28;15.60;99.90
11818;DHT22;5966;52.402;5.322;2023-05-10T15:42:57;15.60;99.90
11818;DHT22;5966;52.402;5.322;2023-05-10T15:45:25;15.60;99.90
11818;DHT22;5966;52.402;5.322;2023-05-10T15:47:53;15.70;99.90
11818;DHT22;5966;52.402;5.322;2023-05-10T15:50:21;15.80;99.90
11818;DHT22;5966;52.402;5.322;2023-05-10T15:52:49;15.80;99.90
11818;DHT22;5966;52.402;5.322;2023-05-10T15:55:18;15.90;99.90
11818;DHT22;5966;52.402;5.322;2023-05-10T15:57:46;15.90;99.90
11818;DHT22;5966;52.402;5.322;2023-05-10T16:00:16;16.00;99.90
11818;DHT22;5966;52.402;5.322;2023-05-10T16:02:44;16.10;99.90
11818;DHT22;5966;52.402;5.322;2023-05-10T16:05:12;16.20;99.90
11818;DHT22;5966;52.402;5.322;2023-05-10T16:07:41;16.30;99.90